createdAt,value
2023-01-01T00:01:24.984Z,21.98
2023-01-01T00:03:52.635Z,21.99
2023-01-01T00:06:19.739Z,21.99
2023-01-01T00:08:46.781Z,22.01
2023-01-01T00:11:14.141Z,22.01
2023-01-01T00:13:42.026Z,22.01
2023-01-01T00:16:11.837Z,22.02
2023-01-01T00:18:38.913Z,22.04
2023-01-01T00:21:12.730Z,22.02
2023-01-01T00:23:39.610Z,22.06
2023-01-01T00:26:13.607Z,22.08
2023-01-01T00:28:40.170Z,22.13
2023-01-01T00:31:11.350Z,22.13
2023-01-01T00:33:37.751Z,22.15
2023-01-01T00:36:08.756Z,22.16
2023-01-01T00:38:35.804Z,22.20
2023-01-01T00:41:02.251Z,22.21
2023-01-01T00:43:28.715Z,22.22
2023-01-01T00:45:55.505Z,22.21
2023-01-01T00:48:22.088Z,22.20
2023-01-01T00:50:49.592Z,22.18
2023-01-01T00:53:16.196Z,22.17
2023-01-01T00:55:44.255Z,22.16
2023-01-01T00:58:11.319Z,22.15
2023-01-01T01:00:38.270Z,22.13
2023-01-01T01:03:04.729Z,22.07
2023-01-01T01:05:32.146Z,22.05
2023-01-01T01:07:59.426Z,22.03
2023-01-01T01:10:26.337Z,22.01
2023-01-01T01:12:53.330Z,21.98
2023-01-01T01:15:20.175Z,21.95
2023-01-01T01:17:47.212Z,21.94
2023-01-01T01:20:13.762Z,21.92
2023-01-01T01:22:40.182Z,21.90
2023-01-01T01:25:07.653Z,21.89
2023-01-01T01:27:34.223Z,21.86
2023-01-01T01:30:00.585Z,21.83
2023-01-01T01:32:26.998Z,21.79
2023-01-01T01:34:53.542Z,21.76
2023-01-01T01:37:20.262Z,21.75
2023-01-01T01:39:51.718Z,21.70
2023-01-01T01:42:20.306Z,21.69
2023-01-01T01:44:49.546Z,21.68
2023-01-01T01:47:20.801Z,21.63
2023-01-01T01:49:47.868Z,21.62
2023-01-01T01:52:15.041Z,21.61
2023-01-01T01:54:42.560Z,21.59
2023-01-01T01:57:13.661Z,21.57
2023-01-01T01:59:47.534Z,21.57
2023-01-01T02:02:27.140Z,21.54
2023-01-01T02:04:54.772Z,21.56
2023-01-01T02:07:22.867Z,21.55
2023-01-01T02:09:49.300Z,21.57
2023-01-01T02:12:15.730Z,21.57
2023-01-01T02:14:42.311Z,21.55
2023-01-01T02:17:15.522Z,21.53
2023-01-01T02:20:01.225Z,21.49
2023-01-01T02:22:37.993Z,21.49
2023-01-01T02:25:28.568Z,21.47
2023-01-01T02:28:23.068Z,21.47
2023-01-01T02:30:52.872Z,21.49
2023-01-01T02:33:27.899Z,21.45
2023-01-01T02:36:02.779Z,21.45
2023-01-01T02:38:39.820Z,21.43
2023-01-01T02:41:10.916Z,21.43
2023-01-01T02:43:37.995Z,21.41
2023-01-01T02:46:12.388Z,21.38
2023-01-01T02:48:49.448Z,21.37
2023-01-01T02:51:39.759Z,21.35
2023-01-01T02:54:16.604Z,21.36
2023-01-01T02:56:49.096Z,21.31
2023-01-01T02:59:45.393Z,21.29
2023-01-01T03:02:23.159Z,21.26
2023-01-01T03:05:10.966Z,21.22
2023-01-01T03:08:03.549Z,21.21
2023-01-01T03:10:57.951Z,21.20
2023-01-01T03:13:38.056Z,21.17
2023-01-01T03:16:11.583Z,21.19
2023-01-01T03:19:11.717Z,21.15
2023-01-01T03:21:55.055Z,21.16
2023-01-01T03:24:31.566Z,21.15
2023-01-01T03:27:04.151Z,21.15
2023-01-01T03:29:36.645Z,21.14
2023-01-01T03:32:06.334Z,21.13
2023-01-01T03:34:39.080Z,21.12
2023-01-01T03:37:10.052Z,21.10
2023-01-01T03:39:41.103Z,21.09
2023-01-01T03:42:29.016Z,21.03
2023-01-01T03:45:04.479Z,21.04
2023-01-01T03:47:31.337Z,21.06
2023-01-01T03:49:58.862Z,21.03
2023-01-01T03:52:38.611Z,21.00
2023-01-01T03:55:15.658Z,21.00
2023-01-01T03:58:08.099Z,20.98
2023-01-01T04:00:38.991Z,21.02
2023-01-01T04:03:18.506Z,20.99
2023-01-01T04:05:45.287Z,21.01
2023-01-01T04:08:14.667Z,21.03
2023-01-01T04:10:48.762Z,21.01
2023-01-01T04:13:15.648Z,21.02
2023-01-01T04:15:42.229Z,21.02
2023-01-01T04:18:09.177Z,21.03
2023-01-01T04:20:35.641Z,21.04
2023-01-01T04:23:03.956Z,21.04
2023-01-01T04:25:31.035Z,21.06
2023-01-01T04:28:03.432Z,21.07
2023-01-01T04:30:29.903Z,21.08
2023-01-01T04:32:56.543Z,21.08
2023-01-01T04:35:22.879Z,21.09
2023-01-01T04:37:49.405Z,21.12
2023-01-01T04:40:16.324Z,21.12
2023-01-01T04:42:43.406Z,21.13
2023-01-01T04:45:12.242Z,21.13
2023-01-01T04:47:38.993Z,21.14
2023-01-01T04:50:07.059Z,21.14
2023-01-01T04:52:33.750Z,21.15
2023-01-01T04:55:00.130Z,21.15
2023-01-01T04:57:28.924Z,21.16
2023-01-01T04:59:55.446Z,21.16
2023-01-01T05:02:21.982Z,21.17
2023-01-01T05:04:49.492Z,21.18
2023-01-01T05:07:16.670Z,21.18
2023-01-01T05:09:43.041Z,21.17
2023-01-01T05:12:09.569Z,21.19
2023-01-01T05:14:36.067Z,21.18
2023-01-01T05:17:02.393Z,21.20
2023-01-01T05:19:29.489Z,21.18
2023-01-01T05:21:56.031Z,21.20
2023-01-01T05:24:22.410Z,21.19
2023-01-01T05:26:49.187Z,21.18
2023-01-01T05:29:17.481Z,21.17
2023-01-01T05:31:44.620Z,21.17
2023-01-01T05:34:11.114Z,21.18
2023-01-01T05:36:39.283Z,21.14
2023-01-01T05:39:08.140Z,21.12
2023-01-01T05:41:36.793Z,21.09
2023-01-01T05:44:05.860Z,21.04
2023-01-01T05:46:32.560Z,21.01
2023-01-01T05:48:59.200Z,20.96
2023-01-01T05:51:27.733Z,20.92
2023-01-01T05:53:54.625Z,20.91
2023-01-01T05:56:21.259Z,20.91
2023-01-01T05:58:47.854Z,20.88
2023-01-01T06:01:19.586Z,20.82
2023-01-01T06:03:48.840Z,20.78
2023-01-01T06:06:18.783Z,20.76
2023-01-01T06:08:52.591Z,20.73
2023-01-01T06:11:20.172Z,20.73
2023-01-01T06:13:47.082Z,20.73
2023-01-01T06:16:14.173Z,20.72
2023-01-01T06:18:40.816Z,20.71
2023-01-01T06:21:15.691Z,20.70
2023-01-01T06:23:43.122Z,20.72
2023-01-01T06:26:17.914Z,20.71
2023-01-01T06:28:45.201Z,20.75
2023-01-01T06:31:14.361Z,20.75
2023-01-01T06:33:41.335Z,20.78
2023-01-01T06:36:10.229Z,20.77
2023-01-01T06:38:39.622Z,20.76
2023-01-01T06:41:13.076Z,20.73
2023-01-01T06:43:39.763Z,20.75
2023-01-01T06:46:17.838Z,20.75
2023-01-01T06:48:46.001Z,20.76
2023-01-01T06:51:15.044Z,20.76
2023-01-01T06:53:41.693Z,20.78
2023-01-01T06:56:09.027Z,20.78
2023-01-01T06:58:35.817Z,20.78
2023-01-01T07:01:16.231Z,20.76
2023-01-01T07:03:43.648Z,20.78
2023-01-01T07:06:10.734Z,20.77
2023-01-01T07:08:37.848Z,20.76
2023-01-01T07:11:04.338Z,20.75
2023-01-01T07:13:31.279Z,20.75
2023-01-01T07:15:57.853Z,20.74
2023-01-01T07:18:26.132Z,20.74
2023-01-01T07:20:54.638Z,20.74
2023-01-01T07:23:21.163Z,20.74
2023-01-01T07:25:50.172Z,20.73
2023-01-01T07:28:16.569Z,20.73
2023-01-01T07:30:43.060Z,20.72
2023-01-01T07:33:12.937Z,20.70
2023-01-01T07:35:40.069Z,20.71
2023-01-01T07:38:06.551Z,20.69
2023-01-01T07:40:33.169Z,20.67
2023-01-01T07:42:59.536Z,20.68
2023-01-01T07:45:26.084Z,20.65
2023-01-01T07:47:57.723Z,20.66
2023-01-01T07:50:26.648Z,20.67
2023-01-01T07:52:53.550Z,20.70
2023-01-01T07:55:20.770Z,20.69
2023-01-01T07:57:48.164Z,20.69
2023-01-01T08:00:17.989Z,20.67
2023-01-01T08:02:44.971Z,20.66
2023-01-01T08:05:11.587Z,20.64
2023-01-01T08:07:38.210Z,20.60
2023-01-01T08:10:06.140Z,20.56
2023-01-01T08:12:33.604Z,20.53
2023-01-01T08:15:01.198Z,20.49
2023-01-01T08:17:27.571Z,20.47
2023-01-01T08:19:53.936Z,20.44
2023-01-01T08:22:20.393Z,20.42
2023-01-01T08:24:46.915Z,20.39
2023-01-01T08:27:14.755Z,20.37
2023-01-01T08:29:41.648Z,20.36
2023-01-01T08:32:08.359Z,20.34
2023-01-01T08:34:34.763Z,20.33
2023-01-01T08:37:01.191Z,20.31
2023-01-01T08:39:29.147Z,20.29
2023-01-01T08:41:55.689Z,20.29
2023-01-01T08:44:22.920Z,20.29
2023-01-01T08:46:49.410Z,20.29
2023-01-01T08:49:15.815Z,20.31
2023-01-01T08:51:42.201Z,20.31
2023-01-01T08:54:08.638Z,20.31
2023-01-01T08:56:36.073Z,20.30
2023-01-01T08:59:04.570Z,20.30
2023-01-01T09:01:31.014Z,20.32
2023-01-01T09:03:57.767Z,20.36
2023-01-01T09:06:24.307Z,20.34
2023-01-01T09:08:51.342Z,20.33
2023-01-01T09:11:23.694Z,20.31
2023-01-01T09:13:50.374Z,20.32
2023-01-01T09:16:17.018Z,20.32
2023-01-01T09:18:43.436Z,20.33
2023-01-01T09:21:09.837Z,20.32
2023-01-01T09:23:37.706Z,20.35
2023-01-01T09:26:09.235Z,20.34
2023-01-01T09:28:36.727Z,20.37
2023-01-01T09:31:06.522Z,20.40
2023-01-01T09:33:34.197Z,20.41
2023-01-01T09:36:29.187Z,20.41
2023-01-01T09:38:56.995Z,20.47
2023-01-01T09:41:51.555Z,20.45
2023-01-01T09:44:39.508Z,20.47
2023-01-01T09:47:20.799Z,20.48
2023-01-01T09:49:52.184Z,20.50
2023-01-01T09:52:20.320Z,20.51
2023-01-01T09:55:00.823Z,20.50
2023-01-01T09:57:32.226Z,20.52
2023-01-01T10:00:00.409Z,20.57
2023-01-01T10:02:39.852Z,20.60
2023-01-01T10:05:26.307Z,20.60
2023-01-01T10:08:14.935Z,20.65
2023-01-01T10:11:01.829Z,20.66
2023-01-01T10:13:42.315Z,20.68
2023-01-01T10:16:37.046Z,20.70
2023-01-01T10:19:13.426Z,20.70
2023-01-01T10:21:47.172Z,20.73
2023-01-01T10:24:32.584Z,20.72
2023-01-01T10:27:02.343Z,20.76
2023-01-01T10:29:40.846Z,20.74
2023-01-01T10:32:19.875Z,20.79
2023-01-01T10:34:47.038Z,20.82
2023-01-01T10:37:15.356Z,20.81
2023-01-01T10:39:43.659Z,20.79
2023-01-01T10:42:14.784Z,20.77
2023-01-01T10:44:43.292Z,20.78
2023-01-01T10:47:21.093Z,20.76
2023-01-01T10:49:59.033Z,20.79
2023-01-01T10:52:36.629Z,20.80
2023-01-01T10:55:04.515Z,20.84
2023-01-01T10:57:34.787Z,20.84
2023-01-01T11:00:10.523Z,20.84
2023-01-01T11:02:37.414Z,20.89
2023-01-01T11:05:20.711Z,20.89
2023-01-01T11:07:48.590Z,20.93
2023-01-01T11:10:23.733Z,20.94
2023-01-01T11:13:06.953Z,20.97
2023-01-01T11:15:42.701Z,20.95
2023-01-01T11:18:22.175Z,20.97
2023-01-01T11:20:57.264Z,21.01
2023-01-01T11:23:34.782Z,21.02
2023-01-01T11:26:06.267Z,21.06
2023-01-01T11:28:36.717Z,21.09
2023-01-01T11:31:15.521Z,21.09
2023-01-01T11:33:52.837Z,21.11
2023-01-01T11:36:25.464Z,21.12
2023-01-01T11:39:06.654Z,21.12
2023-01-01T11:41:48.172Z,21.14
2023-01-01T11:44:27.738Z,21.15
2023-01-01T11:46:54.207Z,21.17
2023-01-01T11:49:25.199Z,21.16
2023-01-01T11:51:51.842Z,21.19
2023-01-01T11:54:36.039Z,21.17
2023-01-01T11:57:11.948Z,21.19
2023-01-01T11:59:59.338Z,21.19
2023-01-01T12:02:53.059Z,21.19
2023-01-01T12:05:25.661Z,21.22
2023-01-01T12:07:52.479Z,21.22
2023-01-01T12:10:30.094Z,21.19
2023-01-01T12:13:18.067Z,21.17
2023-01-01T12:16:02.405Z,21.19
2023-01-01T12:18:37.153Z,21.16
2023-01-01T12:21:24.899Z,21.14
2023-01-01T12:23:51.452Z,21.16
2023-01-01T12:26:29.529Z,21.13
2023-01-01T12:29:24.365Z,21.17
2023-01-01T12:32:14.058Z,21.14
2023-01-01T12:35:05.302Z,21.12
2023-01-01T12:37:46.425Z,21.11
2023-01-01T12:40:48.476Z,21.10
2023-01-01T12:43:38.847Z,21.10
2023-01-01T12:46:30.421Z,21.11
2023-01-01T12:49:22.465Z,21.11
2023-01-01T12:52:20.647Z,21.13
2023-01-01T12:55:08.050Z,21.14
2023-01-01T12:57:48.564Z,21.16
2023-01-01T13:00:18.239Z,21.19
2023-01-01T13:02:56.394Z,21.18
2023-01-01T13:05:27.490Z,21.19
2023-01-01T13:07:59.258Z,21.19
2023-01-01T13:10:36.713Z,21.17
2023-01-01T13:13:04.445Z,21.20
2023-01-01T13:15:40.447Z,21.18
2023-01-01T13:18:14.064Z,21.18
2023-01-01T13:20:53.643Z,21.15
2023-01-01T13:23:29.337Z,21.13
2023-01-01T13:26:17.701Z,21.11
2023-01-01T13:29:09.602Z,21.15
2023-01-01T13:31:39.223Z,21.16
2023-01-01T13:34:31.275Z,21.12
2023-01-01T13:37:10.034Z,21.09
2023-01-01T13:40:13.942Z,21.05
2023-01-01T13:43:04.648Z,21.05
2023-01-01T13:49:12.034Z,20.95
2023-01-01T13:52:08.461Z,20.93
2023-01-01T13:55:05.590Z,20.91
2023-01-01T13:57:56.718Z,20.86
2023-01-01T14:00:32.338Z,20.88
2023-01-01T14:03:02.871Z,20.86
2023-01-01T14:05:34.035Z,20.83
2023-01-01T14:08:00.549Z,20.84
2023-01-01T14:10:31.404Z,20.81
2023-01-01T14:13:07.000Z,20.78
2023-01-01T14:15:36.321Z,20.78
2023-01-01T14:18:06.667Z,20.78
2023-01-01T14:20:48.972Z,20.73
2023-01-01T14:23:36.852Z,20.71
2023-01-01T14:26:15.380Z,20.69
2023-01-01T14:28:43.185Z,20.70
2023-01-01T14:31:14.111Z,20.67
2023-01-01T14:33:40.707Z,20.65
2023-01-01T14:36:17.763Z,20.61
2023-01-01T14:38:46.573Z,20.62
2023-01-01T14:41:19.005Z,20.58
2023-01-01T14:43:47.722Z,20.57
2023-01-01T14:46:18.450Z,20.55
2023-01-01T14:48:46.946Z,20.54
2023-01-01T14:51:20.346Z,20.51
2023-01-01T14:53:48.678Z,20.50
2023-01-01T14:56:26.742Z,20.47
2023-01-01T14:58:53.798Z,20.49
2023-01-01T15:01:26.476Z,20.46
2023-01-01T15:04:01.724Z,20.43
2023-01-01T15:06:29.241Z,20.43
2023-01-01T15:08:57.728Z,20.43
2023-01-01T15:11:29.089Z,20.41
2023-01-01T15:14:01.473Z,20.39
2023-01-01T15:16:33.306Z,20.38
2023-01-01T15:19:18.511Z,20.33
2023-01-01T15:21:45.513Z,20.34
2023-01-01T15:24:20.319Z,20.30
2023-01-01T15:26:56.350Z,20.28
2023-01-01T15:29:38.301Z,20.25
2023-01-01T15:32:07.436Z,20.26
2023-01-01T15:34:53.798Z,20.21
2023-01-01T15:37:32.189Z,20.20
2023-01-01T15:39:59.749Z,20.22
2023-01-01T15:42:32.985Z,20.24
2023-01-01T15:45:23.386Z,20.19
2023-01-01T15:47:51.896Z,20.19
2023-01-01T15:50:30.075Z,20.18
2023-01-01T15:53:01.200Z,20.18
2023-01-01T15:55:31.494Z,20.14
2023-01-01T15:57:58.631Z,20.10
2023-01-01T16:00:35.969Z,20.05
2023-01-01T16:03:17.549Z,20.01
2023-01-01T16:05:50.340Z,19.99
2023-01-01T16:08:17.492Z,20.00
2023-01-01T16:10:43.827Z,19.98
2023-01-01T16:13:12.877Z,19.98
2023-01-01T16:16:00.391Z,19.91
2023-01-01T16:18:38.042Z,19.92
2023-01-01T16:21:05.481Z,19.94
2023-01-01T16:23:31.884Z,19.92
2023-01-01T16:25:58.415Z,19.92
2023-01-01T16:28:24.833Z,19.90
2023-01-01T16:30:51.971Z,19.88
2023-01-01T16:33:21.558Z,19.86
2023-01-01T16:35:47.900Z,19.84
2023-01-01T16:38:14.758Z,19.80
2023-01-01T16:40:41.305Z,19.77
2023-01-01T16:43:16.158Z,19.71
2023-01-01T16:45:44.018Z,19.72
2023-01-01T16:48:10.487Z,19.69
2023-01-01T16:50:37.025Z,19.66
2023-01-01T16:53:03.572Z,19.64
2023-01-01T16:55:30.117Z,19.62
2023-01-01T16:58:21.190Z,19.60
2023-01-01T17:00:43.400Z,19.57
2023-01-01T17:03:10.005Z,19.52
2023-01-01T17:05:42.128Z,19.48
2023-01-01T17:08:10.362Z,19.47
2023-01-01T17:10:36.725Z,19.44
2023-01-01T17:13:03.316Z,19.41
2023-01-01T17:15:29.877Z,19.38
2023-01-01T17:17:57.739Z,19.35
2023-01-01T17:20:25.184Z,19.33
2023-01-01T17:22:51.635Z,19.31
2023-01-01T17:25:18.144Z,19.27
2023-01-01T17:27:47.584Z,19.23
2023-01-01T17:30:16.074Z,19.19
2023-01-01T17:32:42.464Z,19.15
2023-01-01T17:35:09.456Z,19.11
2023-01-01T17:37:35.859Z,19.07
2023-01-01T17:40:02.283Z,19.02
2023-01-01T17:42:29.062Z,18.97
2023-01-01T17:44:55.463Z,18.91
2023-01-01T17:47:24.538Z,18.87
2023-01-01T17:49:54.218Z,18.82
2023-01-01T17:52:20.833Z,18.78
2023-01-01T17:54:47.184Z,18.73
2023-01-01T17:57:13.568Z,18.70
2023-01-01T17:59:39.983Z,18.68
2023-01-01T18:02:13.410Z,18.65
2023-01-01T18:04:41.293Z,18.65
2023-01-01T18:07:07.822Z,18.62
2023-01-01T18:09:34.318Z,18.60
2023-01-01T18:12:01.277Z,18.59
2023-01-01T18:14:28.179Z,18.58
2023-01-01T18:16:54.541Z,18.57
2023-01-01T18:19:21.301Z,18.58
2023-01-01T18:21:47.833Z,18.56
2023-01-01T18:24:15.410Z,18.55
2023-01-01T18:26:42.469Z,18.55
2023-01-01T18:29:09.337Z,18.54
2023-01-01T18:31:36.524Z,18.54
2023-01-01T18:34:04.309Z,18.54
2023-01-01T18:36:32.744Z,18.53
2023-01-01T18:39:20.030Z,18.52
2023-01-01T18:41:49.285Z,18.50
2023-01-01T18:44:28.329Z,18.47
2023-01-01T18:47:11.651Z,18.47
2023-01-01T18:49:38.229Z,18.48
2023-01-01T18:52:07.653Z,18.45
2023-01-01T18:54:35.536Z,18.44
2023-01-01T18:57:12.069Z,18.41
2023-01-01T18:59:39.697Z,18.43
2023-01-01T19:02:29.508Z,18.38
2023-01-01T19:05:06.655Z,18.40
2023-01-01T19:07:33.039Z,18.41
2023-01-01T19:10:00.138Z,18.40
2023-01-01T19:12:28.586Z,18.40
2023-01-01T19:14:55.089Z,18.39
2023-01-01T19:17:23.473Z,18.40
2023-01-01T19:19:50.723Z,18.40
2023-01-01T19:22:33.122Z,18.37
2023-01-01T19:25:02.553Z,18.40
2023-01-01T19:27:34.076Z,18.39
2023-01-01T19:30:01.897Z,18.40
2023-01-01T19:32:29.314Z,18.40
2023-01-01T19:34:56.304Z,18.39
2023-01-01T19:37:22.824Z,18.36
2023-01-01T19:39:51.562Z,18.34
2023-01-01T19:42:18.290Z,18.33
2023-01-01T19:44:44.859Z,18.31
2023-01-01T19:47:11.173Z,18.28
2023-01-01T19:49:37.819Z,18.28
2023-01-01T19:52:04.341Z,18.27
2023-01-01T19:54:30.759Z,18.26
2023-01-01T19:56:57.268Z,18.24
2023-01-01T19:59:27.811Z,18.22
2023-01-01T20:02:35.005Z,18.22
2023-01-01T20:04:45.877Z,18.21
2023-01-01T20:07:15.607Z,18.21
2023-01-01T20:09:42.016Z,18.20
2023-01-01T20:12:08.446Z,18.19
2023-01-01T20:14:34.887Z,18.19
2023-01-01T20:17:02.413Z,18.19
2023-01-01T20:19:29.022Z,18.21
2023-01-01T20:22:13.927Z,18.20
2023-01-01T20:24:44.829Z,18.20
2023-01-01T20:27:14.719Z,18.21
2023-01-01T20:29:41.130Z,18.23
2023-01-01T20:32:15.553Z,18.24
2023-01-01T20:34:43.611Z,18.24
2023-01-01T20:37:28.567Z,18.26
2023-01-01T20:39:55.114Z,18.28
2023-01-01T20:42:21.595Z,18.27
2023-01-01T20:44:48.106Z,18.29
2023-01-01T20:47:14.830Z,18.30
2023-01-01T20:49:42.665Z,18.30
2023-01-01T20:52:09.164Z,18.31
2023-01-01T20:54:35.596Z,18.32
2023-01-01T20:57:01.979Z,18.34
2023-01-01T20:59:37.373Z,18.36
2023-01-01T21:02:07.140Z,18.36
2023-01-01T21:04:38.070Z,18.35
2023-01-01T21:07:06.210Z,18.35
2023-01-01T21:09:32.765Z,18.36
2023-01-01T21:12:01.248Z,18.37
2023-01-01T21:14:28.468Z,18.40
2023-01-01T21:16:55.031Z,18.40
2023-01-01T21:19:26.643Z,18.38
2023-01-01T21:21:55.894Z,18.38
2023-01-01T21:24:28.049Z,18.36
2023-01-01T21:27:17.377Z,18.34
2023-01-01T21:29:46.185Z,18.35
2023-01-01T21:32:18.886Z,18.34
2023-01-01T21:34:45.829Z,18.37
2023-01-01T21:37:42.442Z,18.34
2023-01-01T21:40:27.301Z,18.34
2023-01-01T21:43:05.813Z,18.34
2023-01-01T21:45:33.701Z,18.37
2023-01-01T21:48:30.636Z,18.36
2023-01-01T21:50:57.186Z,18.37
2023-01-01T21:53:34.896Z,18.33
2023-01-01T21:56:24.253Z,18.31
2023-01-01T21:59:10.474Z,18.34
2023-01-01T22:01:43.402Z,18.33
2023-01-01T22:04:09.809Z,18.35
2023-01-01T22:06:44.947Z,18.33
2023-01-01T22:09:20.848Z,18.36
2023-01-01T22:11:49.080Z,18.38
2023-01-01T22:14:18.547Z,18.40
2023-01-01T22:16:47.491Z,18.43
2023-01-01T22:19:19.744Z,18.45
2023-01-01T22:21:47.061Z,18.51
2023-01-01T22:24:33.550Z,18.52
2023-01-01T22:27:29.477Z,18.58
2023-01-01T22:30:21.046Z,18.64
2023-01-01T22:32:52.212Z,18.71
2023-01-01T22:35:23.680Z,18.75
2023-01-01T22:37:55.684Z,18.81
2023-01-01T22:40:29.053Z,18.85
2023-01-01T22:43:10.345Z,18.88
2023-01-01T22:45:41.658Z,18.94
2023-01-01T22:48:16.546Z,18.98
2023-01-01T22:50:44.837Z,19.02
2023-01-01T22:53:11.205Z,19.06
2023-01-01T22:55:37.764Z,19.08
2023-01-01T22:58:04.164Z,19.10
2023-01-01T23:00:30.722Z,19.11
2023-01-01T23:02:57.186Z,19.15
2023-01-01T23:05:23.686Z,19.17
2023-01-01T23:07:50.144Z,19.20
2023-01-01T23:10:16.765Z,19.21
2023-01-01T23:12:43.140Z,19.23
2023-01-01T23:15:28.818Z,19.26
2023-01-01T23:17:55.328Z,19.31
2023-01-01T23:20:21.865Z,19.33
2023-01-01T23:22:52.076Z,19.37
2023-01-01T23:25:19.562Z,19.40
2023-01-01T23:27:47.429Z,19.44
2023-01-01T23:30:16.249Z,19.47
2023-01-01T23:32:42.874Z,19.50
2023-01-01T23:35:10.341Z,19.54
2023-01-01T23:37:37.656Z,19.55
2023-01-01T23:40:04.550Z,19.58
2023-01-01T23:42:30.927Z,19.59
2023-01-01T23:44:57.258Z,19.62
2023-01-01T23:47:23.669Z,19.64
2023-01-01T23:49:50.112Z,19.65
2023-01-01T23:52:16.565Z,19.66
2023-01-01T23:54:42.984Z,19.67
2023-01-01T23:57:09.530Z,19.68
2023-01-01T23:59:35.880Z,19.71
